createdAt,value
2023-11-18T00:01:43.204Z,22.70
2023-11-18T00:04:16.960Z,21.85
2023-11-18T00:06:47.271Z,21.63
2023-11-18T00:09:14.447Z,21.23
2023-11-18T00:11:41.539Z,22.58
2023-11-18T00:14:08.435Z,21.92
2023-11-18T00:16:35.656Z,20.52
2023-11-18T00:19:02.657Z,20.92
2023-11-18T00:21:29.146Z,21.92
2023-11-18T00:23:57.076Z,20.63
2023-11-18T00:26:23.681Z,21.92
2023-11-18T00:28:50.466Z,22.35
2023-11-18T00:31:17.046Z,22.52
2023-11-18T00:33:44.279Z,20.15
2023-11-18T00:36:10.831Z,20.55
2023-11-18T00:38:37.319Z,20.83
2023-11-18T00:41:04.153Z,22.05
2023-11-18T00:43:30.759Z,22.02
2023-11-18T00:45:59.101Z,21.50
2023-11-18T00:48:25.657Z,19.55
2023-11-18T00:50:53.022Z,21.27
2023-11-18T00:53:20.004Z,20.75
2023-11-18T00:55:46.702Z,20.58
2023-11-18T00:58:13.414Z,20.95
2023-11-18T01:00:39.992Z,21.67
2023-11-18T01:03:06.525Z,19.77
2023-11-18T01:05:32.994Z,21.00
2023-11-18T01:07:59.515Z,18.27
2023-11-18T01:10:26.064Z,21.17
2023-11-18T01:12:52.564Z,18.98
2023-11-18T01:15:19.057Z,20.00
2023-11-18T01:17:45.731Z,20.05
2023-11-18T01:20:13.245Z,20.02
2023-11-18T01:22:40.505Z,19.05
2023-11-18T01:25:07.668Z,19.90
2023-11-18T01:27:37.016Z,20.15
2023-11-18T01:30:05.848Z,18.77
2023-11-18T01:32:32.875Z,18.88
2023-11-18T01:34:59.899Z,18.73
2023-11-18T01:37:26.551Z,19.92
2023-11-18T01:39:53.126Z,19.42
2023-11-18T01:42:19.622Z,20.10
2023-11-18T01:44:46.140Z,20.00
2023-11-18T01:47:13.709Z,19.13
2023-11-18T01:49:42.011Z,18.92
2023-11-18T01:52:09.010Z,19.00
2023-11-18T01:54:38.858Z,19.73
2023-11-18T01:57:07.237Z,17.90
2023-11-18T01:59:34.847Z,18.73
2023-11-18T02:02:03.166Z,18.92
2023-11-18T02:04:30.816Z,18.92
2023-11-18T02:06:58.245Z,19.17
2023-11-18T02:09:31.581Z,19.67
2023-11-18T02:12:17.525Z,18.85
2023-11-18T02:14:44.522Z,19.15
2023-11-18T02:17:12.143Z,20.33
2023-11-18T02:19:40.330Z,18.75
2023-11-18T02:22:12.261Z,19.25
2023-11-18T02:24:38.880Z,19.20
2023-11-18T02:27:12.555Z,21.58
2023-11-18T02:29:44.202Z,20.10
2023-11-18T02:32:25.218Z,18.85
2023-11-18T02:35:01.992Z,19.42
2023-11-18T02:37:28.721Z,18.40
2023-11-18T02:40:04.969Z,18.42
2023-11-18T02:42:31.689Z,18.25
2023-11-18T02:45:00.592Z,18.23
2023-11-18T02:47:28.122Z,18.17
2023-11-18T02:49:55.841Z,18.85
2023-11-18T02:52:22.389Z,18.75
2023-11-18T02:54:48.819Z,19.83
2023-11-18T02:57:15.305Z,18.55
2023-11-18T02:59:41.742Z,18.85
2023-11-18T03:02:08.345Z,19.60
2023-11-18T03:04:35.100Z,18.98
2023-11-18T03:07:01.843Z,19.65
2023-11-18T03:09:28.881Z,18.55
2023-11-18T03:11:56.063Z,19.40
2023-11-18T03:14:22.953Z,18.45
2023-11-18T03:16:49.481Z,19.58
2023-11-18T03:19:15.971Z,19.23
2023-11-18T03:21:42.468Z,19.02
2023-11-18T03:24:10.374Z,19.85
2023-11-18T03:26:36.850Z,18.25
2023-11-18T03:29:03.441Z,17.52
2023-11-18T03:31:30.226Z,18.95
2023-11-18T03:33:57.206Z,20.33
2023-11-18T03:36:23.702Z,18.23
2023-11-18T03:38:50.497Z,19.70
2023-11-18T03:41:16.941Z,17.75
2023-11-18T03:43:43.492Z,19.25
2023-11-18T03:46:11.871Z,18.40
2023-11-18T03:48:38.486Z,16.95
2023-11-18T03:51:05.391Z,18.48
2023-11-18T03:53:31.850Z,17.88
2023-11-18T03:55:58.723Z,19.08
2023-11-18T03:58:25.236Z,18.05
2023-11-18T04:00:51.845Z,18.20
2023-11-18T04:03:18.396Z,18.35
2023-11-18T04:05:45.282Z,17.83
2023-11-18T04:08:12.814Z,17.88
2023-11-18T04:10:39.354Z,17.58
2023-11-18T04:13:05.833Z,17.55
2023-11-18T04:15:32.677Z,18.05
2023-11-18T04:17:59.573Z,17.75
2023-11-18T04:20:26.031Z,17.98
2023-11-18T04:22:52.565Z,16.98
2023-11-18T04:25:19.071Z,17.45
2023-11-18T04:27:47.182Z,18.75
2023-11-18T04:30:14.362Z,17.77
2023-11-18T04:32:43.704Z,18.60
2023-11-18T04:35:11.174Z,16.38
2023-11-18T04:37:37.891Z,16.30
2023-11-18T04:40:05.069Z,16.90
2023-11-18T04:42:31.581Z,17.83
2023-11-18T04:44:58.755Z,17.17
2023-11-18T04:47:26.488Z,17.98
2023-11-18T04:49:53.401Z,16.05
2023-11-18T04:52:20.034Z,16.65
2023-11-18T04:54:49.174Z,17.38
2023-11-18T04:57:15.923Z,17.80
2023-11-18T04:59:45.097Z,17.75
2023-11-18T05:02:11.728Z,17.25
2023-11-18T05:04:38.443Z,17.83
2023-11-18T05:07:05.512Z,17.73
2023-11-18T05:09:32.659Z,18.23
2023-11-18T05:12:00.319Z,18.15
2023-11-18T05:14:27.659Z,17.48
2023-11-18T05:16:54.723Z,18.10
2023-11-18T05:19:21.472Z,17.00
2023-11-18T05:21:50.888Z,17.23
2023-11-18T05:24:17.604Z,16.65
2023-11-18T05:26:44.121Z,15.32
2023-11-18T05:29:11.180Z,16.38
2023-11-18T05:31:38.401Z,16.55
2023-11-18T05:34:05.807Z,16.90
2023-11-18T05:36:38.214Z,17.45
2023-11-18T05:39:06.159Z,15.63
2023-11-18T05:41:33.257Z,16.48
2023-11-18T05:43:59.965Z,16.17
2023-11-18T05:46:30.700Z,17.60
2023-11-18T05:48:57.670Z,15.90
2023-11-18T05:51:29.962Z,16.20
2023-11-18T05:53:56.503Z,16.73
2023-11-18T05:56:26.374Z,16.05
2023-11-18T05:58:56.190Z,16.92
2023-11-18T06:01:23.331Z,15.82
2023-11-18T06:03:50.147Z,16.02
2023-11-18T06:06:21.181Z,15.57
2023-11-18T06:08:50.541Z,16.58
2023-11-18T06:11:17.723Z,16.58
2023-11-18T06:13:48.009Z,16.80
2023-11-18T06:16:15.622Z,15.63
2023-11-18T06:18:45.671Z,16.77
2023-11-18T06:21:16.583Z,17.25
2023-11-18T06:23:43.818Z,16.67
2023-11-18T06:26:12.966Z,17.80
2023-11-18T06:28:41.236Z,17.88
2023-11-18T06:31:12.646Z,18.00
2023-11-18T06:33:46.221Z,16.77
2023-11-18T06:36:15.897Z,16.40
2023-11-18T06:38:42.774Z,16.63
2023-11-18T06:41:12.091Z,16.63
2023-11-18T06:43:57.569Z,17.45
2023-11-18T06:46:35.140Z,16.92
2023-11-18T06:49:07.756Z,15.82
2023-11-18T06:51:39.538Z,16.23
2023-11-18T06:54:10.490Z,16.48
2023-11-18T06:56:38.956Z,16.02
2023-11-18T06:59:08.446Z,16.13
2023-11-18T07:01:36.745Z,15.73
2023-11-18T07:04:04.047Z,16.20
2023-11-18T07:06:30.595Z,16.15
2023-11-18T07:09:01.185Z,15.65
2023-11-18T07:11:28.597Z,17.48
2023-11-18T07:13:57.507Z,16.10
2023-11-18T07:16:25.320Z,15.63
2023-11-18T07:18:52.578Z,14.75
2023-11-18T07:21:19.754Z,15.27
2023-11-18T07:23:46.291Z,15.95
2023-11-18T07:26:14.842Z,15.48
2023-11-18T07:28:41.955Z,15.45
2023-11-18T07:31:09.142Z,15.18
2023-11-18T07:33:35.662Z,16.50
2023-11-18T07:36:06.808Z,15.75
2023-11-18T07:38:34.603Z,15.52
2023-11-18T07:41:03.707Z,14.75
2023-11-18T07:43:30.377Z,15.07
2023-11-18T07:45:56.868Z,15.10
2023-11-18T07:48:23.408Z,13.65
2023-11-18T07:50:49.887Z,14.63
2023-11-18T07:53:17.074Z,15.50
2023-11-18T07:55:43.606Z,14.48
2023-11-18T07:58:13.877Z,14.57
2023-11-18T08:03:14.485Z,13.68
2023-11-18T08:05:46.020Z,14.10
2023-11-18T08:08:13.391Z,14.38
2023-11-18T08:10:42.000Z,14.43
2023-11-18T08:13:09.177Z,14.27
2023-11-18T08:15:36.427Z,13.05
2023-11-18T08:18:04.080Z,14.35
2023-11-18T08:20:31.603Z,14.27
2023-11-18T08:22:58.138Z,14.13
2023-11-18T08:25:24.859Z,13.73
2023-11-18T08:27:51.327Z,13.30
2023-11-18T08:30:19.072Z,12.95
2023-11-18T08:32:46.895Z,13.52
2023-11-18T08:35:17.105Z,13.25
2023-11-18T08:37:44.593Z,14.30
2023-11-18T08:40:21.374Z,13.40
2023-11-18T08:42:51.308Z,12.52
2023-11-18T08:45:28.260Z,12.23
2023-11-18T08:47:54.832Z,11.63
2023-11-18T08:50:24.874Z,11.73
2023-11-18T08:53:00.715Z,11.93
2023-11-18T08:55:42.557Z,11.75
2023-11-18T08:58:22.941Z,13.00
2023-11-18T09:00:55.925Z,11.13
2023-11-18T09:03:35.359Z,11.13
2023-11-18T09:06:07.893Z,10.80
2023-11-18T09:08:43.714Z,10.52
2023-11-18T09:11:14.735Z,11.30
2023-11-18T09:13:43.747Z,10.52
2023-11-18T09:16:10.635Z,10.10
2023-11-18T09:18:46.052Z,10.98
2023-11-18T09:21:16.872Z,10.80
2023-11-18T09:23:44.313Z,10.80
2023-11-18T09:26:11.621Z,10.88
2023-11-18T09:28:39.039Z,10.60
2023-11-18T09:31:06.376Z,10.50
2023-11-18T09:33:34.651Z,10.40
2023-11-18T09:36:08.865Z,10.13
2023-11-18T09:38:37.035Z,10.20
2023-11-18T09:41:08.614Z,10.05
2023-11-18T09:43:43.499Z,10.30
2023-11-18T09:46:14.457Z,9.95
2023-11-18T09:49:16.192Z,10.05
2023-11-18T09:51:45.556Z,9.30
2023-11-18T09:54:30.447Z,9.73
2023-11-18T09:57:15.667Z,10.27
2023-11-18T09:59:56.516Z,9.10
2023-11-18T10:02:27.055Z,8.82
2023-11-18T10:04:58.794Z,9.23
2023-11-18T10:07:33.620Z,8.98
2023-11-18T10:10:00.327Z,9.50
2023-11-18T10:12:28.154Z,9.25
2023-11-18T10:14:55.371Z,9.68
2023-11-18T10:17:23.190Z,9.57
2023-11-18T10:20:00.789Z,9.40
2023-11-18T10:22:29.084Z,8.93
2023-11-18T10:24:56.878Z,8.75
2023-11-18T10:27:27.417Z,8.68
2023-11-18T10:30:19.918Z,8.93
2023-11-18T10:33:06.721Z,9.10
2023-11-18T10:35:34.309Z,9.18
2023-11-18T10:38:05.822Z,10.02
2023-11-18T10:40:38.534Z,8.98
2023-11-18T10:43:10.839Z,9.13
2023-11-18T10:45:42.948Z,8.10
2023-11-18T10:48:14.034Z,8.63
2023-11-18T10:50:40.619Z,8.23
2023-11-18T10:53:12.387Z,8.10
2023-11-18T10:55:39.478Z,8.95
2023-11-18T10:58:06.060Z,8.02
2023-11-18T11:00:52.949Z,9.27
2023-11-18T11:03:19.778Z,9.40
2023-11-18T11:05:46.719Z,8.13
2023-11-18T11:08:15.446Z,7.28
2023-11-18T11:10:44.916Z,8.38
2023-11-18T11:13:16.281Z,8.77
2023-11-18T11:15:51.968Z,7.60
2023-11-18T11:18:29.399Z,8.35
2023-11-18T11:21:08.616Z,7.82
2023-11-18T11:23:45.049Z,7.93
2023-11-18T11:26:24.115Z,8.25
2023-11-18T11:29:05.518Z,8.05
2023-11-18T11:31:37.712Z,7.25
2023-11-18T11:34:21.775Z,7.93
2023-11-18T11:36:52.147Z,7.90
2023-11-18T11:39:26.431Z,7.85
2023-11-18T11:41:57.500Z,7.72
2023-11-18T11:44:32.077Z,7.07
2023-11-18T11:47:01.953Z,6.65
2023-11-18T11:49:35.960Z,7.50
2023-11-18T11:52:05.666Z,6.97
2023-11-18T11:55:00.169Z,7.15
2023-11-18T11:57:31.325Z,8.43
2023-11-18T12:00:01.755Z,8.25
2023-11-18T12:02:33.632Z,6.82
2023-11-18T12:05:00.900Z,8.27
2023-11-18T12:07:33.056Z,6.63
2023-11-18T12:10:00.771Z,5.85
2023-11-18T12:12:28.241Z,6.38
2023-11-18T12:14:57.679Z,6.50
2023-11-18T12:17:26.865Z,6.40
2023-11-18T12:20:00.160Z,5.65
2023-11-18T12:22:34.473Z,4.97
2023-11-18T12:25:05.729Z,5.57
2023-11-18T12:27:53.684Z,5.30
2023-11-18T12:30:30.380Z,5.07
2023-11-18T12:33:11.075Z,5.30
2023-11-18T12:35:53.914Z,5.03
2023-11-18T12:38:35.425Z,5.10
2023-11-18T12:41:08.461Z,5.03
2023-11-18T12:43:52.823Z,4.85
2023-11-18T12:46:41.226Z,5.05
2023-11-18T12:49:08.426Z,5.22
2023-11-18T12:51:37.865Z,4.78
2023-11-18T12:54:08.077Z,5.30
2023-11-18T12:56:34.895Z,4.57
2023-11-18T12:59:01.404Z,4.20
2023-11-18T13:01:28.639Z,4.38
2023-11-18T13:03:55.364Z,4.13
2023-11-18T13:06:26.502Z,4.60
2023-11-18T13:08:53.031Z,4.10
2023-11-18T13:11:19.699Z,3.58
2023-11-18T13:13:46.904Z,3.38
2023-11-18T13:16:16.502Z,3.53
2023-11-18T13:18:50.314Z,3.55
2023-11-18T13:21:17.602Z,4.40
2023-11-18T13:23:56.634Z,3.55
2023-11-18T13:26:23.661Z,3.63
2023-11-18T13:28:50.663Z,3.53
2023-11-18T13:31:18.049Z,3.40
2023-11-18T13:33:45.216Z,3.20
2023-11-18T13:36:12.181Z,3.47
2023-11-18T13:38:39.061Z,3.00
2023-11-18T13:41:05.898Z,3.17
2023-11-18T13:43:51.135Z,3.03
2023-11-18T13:46:21.146Z,2.90
2023-11-18T13:51:18.625Z,2.88
2023-11-18T13:53:45.268Z,2.80
2023-11-18T13:56:13.479Z,2.78
2023-11-18T13:58:41.099Z,2.83
2023-11-18T14:01:11.899Z,3.30
2023-11-18T14:03:39.412Z,3.15
2023-11-18T14:06:13.523Z,2.45
2023-11-18T14:08:40.351Z,2.85
2023-11-18T14:11:15.120Z,3.05
2023-11-18T14:13:44.234Z,2.58
2023-11-18T14:16:11.546Z,2.30
2023-11-18T14:18:38.173Z,2.65
2023-11-18T14:21:06.842Z,2.50
2023-11-18T14:23:33.533Z,2.70
2023-11-18T14:26:00.079Z,2.75
2023-11-18T14:28:27.617Z,2.83
2023-11-18T14:30:54.154Z,3.30
2023-11-18T14:33:20.743Z,2.20
2023-11-18T14:35:47.440Z,1.75
2023-11-18T14:38:14.104Z,2.58
2023-11-18T14:40:42.675Z,2.00
2023-11-18T14:43:09.688Z,2.20
2023-11-18T14:45:36.208Z,2.60
2023-11-18T14:48:03.776Z,2.10
2023-11-18T14:50:31.183Z,2.75
2023-11-18T14:53:01.110Z,2.35
2023-11-18T14:55:28.572Z,2.65
2023-11-18T14:57:56.216Z,2.47
2023-11-18T15:00:25.842Z,2.25
2023-11-18T15:02:55.250Z,2.17
2023-11-18T15:05:23.701Z,2.55
2023-11-18T15:07:54.624Z,2.63
2023-11-18T15:10:28.728Z,3.15
2023-11-18T15:12:59.845Z,2.58
2023-11-18T15:15:33.449Z,2.13
2023-11-18T15:18:11.154Z,2.47
2023-11-18T15:20:38.212Z,3.25
2023-11-18T15:23:05.751Z,3.20
2023-11-18T15:25:32.398Z,4.55
2023-11-18T15:27:59.810Z,7.40
2023-11-18T15:30:26.708Z,7.30
2023-11-18T15:32:53.411Z,6.38
2023-11-18T15:35:22.167Z,4.88
2023-11-18T15:37:49.104Z,4.38
2023-11-18T15:40:20.294Z,4.53
2023-11-18T15:42:49.687Z,2.85
2023-11-18T15:45:21.713Z,3.42
2023-11-18T15:47:49.563Z,4.88
2023-11-18T15:50:18.094Z,3.10
2023-11-18T15:52:45.981Z,4.05
2023-11-18T15:55:15.178Z,4.75
2023-11-18T15:57:42.797Z,4.07
2023-11-18T16:00:17.657Z,2.75
2023-11-18T16:02:46.180Z,2.72
2023-11-18T16:05:17.005Z,2.60
2023-11-18T16:07:44.755Z,2.30
2023-11-18T16:10:12.346Z,2.00
2023-11-18T16:12:38.903Z,2.25
2023-11-18T16:15:07.074Z,1.95
2023-11-18T16:17:34.241Z,1.98
2023-11-18T16:20:00.965Z,2.47
2023-11-18T16:22:27.460Z,2.65
2023-11-18T16:24:53.905Z,2.33
2023-11-18T16:27:20.351Z,2.38
2023-11-18T16:29:46.844Z,3.30
2023-11-18T16:32:13.467Z,3.28
2023-11-18T16:34:39.991Z,2.53
2023-11-18T16:37:06.523Z,2.63
2023-11-18T16:39:33.867Z,2.50
2023-11-18T16:42:00.481Z,2.72
2023-11-18T16:44:27.106Z,3.10
2023-11-18T16:46:53.750Z,3.00
2023-11-18T16:49:20.299Z,3.00
2023-11-18T16:51:52.850Z,3.08
2023-11-18T16:54:33.300Z,2.97
2023-11-18T16:57:06.314Z,2.72
2023-11-18T16:59:32.740Z,2.80
2023-11-18T17:01:59.252Z,4.18
2023-11-18T17:04:25.919Z,5.40
2023-11-18T17:06:52.511Z,4.25
2023-11-18T17:09:18.984Z,4.38
2023-11-18T17:11:48.461Z,4.38
2023-11-18T17:14:16.064Z,3.92
2023-11-18T17:16:45.354Z,4.38
2023-11-18T17:19:12.832Z,3.42
2023-11-18T17:21:39.709Z,3.70
2023-11-18T17:24:06.750Z,3.75
2023-11-18T17:26:40.034Z,3.90
2023-11-18T17:29:07.496Z,4.40
2023-11-18T17:31:35.472Z,3.90
2023-11-18T17:34:02.826Z,3.70
2023-11-18T17:36:29.269Z,4.05
2023-11-18T17:38:56.094Z,4.05
2023-11-18T17:41:22.944Z,4.22
2023-11-18T17:43:50.423Z,3.88
2023-11-18T17:46:17.169Z,4.63
2023-11-18T17:48:43.795Z,4.80
2023-11-18T17:51:10.303Z,5.38
2023-11-18T17:53:37.190Z,5.72
2023-11-18T17:56:06.483Z,7.65
2023-11-18T17:58:33.413Z,8.35
2023-11-18T18:01:02.390Z,8.98
2023-11-18T18:03:29.432Z,6.82
2023-11-18T18:05:56.025Z,7.63
2023-11-18T18:08:22.490Z,8.23
2023-11-18T18:10:49.686Z,8.48
2023-11-18T18:13:16.504Z,10.13
2023-11-18T18:15:43.161Z,9.20
2023-11-18T18:18:10.413Z,10.85
2023-11-18T18:20:37.028Z,10.63
2023-11-18T18:23:04.585Z,11.70
2023-11-18T18:25:31.082Z,11.90
2023-11-18T18:27:57.543Z,12.57
2023-11-18T18:30:24.020Z,11.88
2023-11-18T18:32:51.073Z,13.95
2023-11-18T18:35:18.115Z,15.13
2023-11-18T18:37:44.744Z,13.63
2023-11-18T18:40:13.029Z,16.92
2023-11-18T18:42:41.555Z,15.20
2023-11-18T18:45:09.128Z,13.77
2023-11-18T18:47:36.182Z,13.90
2023-11-18T18:50:02.802Z,14.52
2023-11-18T18:52:29.504Z,14.85
2023-11-18T18:54:56.117Z,15.68
2023-11-18T18:57:22.837Z,16.08
2023-11-18T18:59:49.511Z,15.25
2023-11-18T19:02:16.895Z,15.15
2023-11-18T19:04:43.562Z,16.38
2023-11-18T19:07:11.116Z,17.70
2023-11-18T19:09:37.629Z,17.48
2023-11-18T19:12:04.839Z,17.30
2023-11-18T19:14:31.361Z,16.15
2023-11-18T19:16:58.457Z,17.67
2023-11-18T19:19:25.035Z,16.20
2023-11-18T19:21:52.279Z,16.95
2023-11-18T19:24:20.082Z,17.17
2023-11-18T19:26:48.229Z,15.75
2023-11-18T19:29:14.752Z,17.10
2023-11-18T19:31:41.223Z,15.50
2023-11-18T19:34:07.769Z,15.43
2023-11-18T19:36:34.469Z,16.60
2023-11-18T19:39:00.956Z,12.60
2023-11-18T19:41:27.694Z,16.27
2023-11-18T19:43:54.321Z,15.35
2023-11-18T19:46:22.243Z,14.20
2023-11-18T19:48:48.819Z,16.63
2023-11-18T19:51:15.353Z,14.85
2023-11-18T19:53:42.223Z,15.32
2023-11-18T19:56:10.623Z,16.40
2023-11-18T19:58:37.278Z,16.45
2023-11-18T20:01:03.869Z,15.98
2023-11-18T20:03:30.742Z,17.70
2023-11-18T20:05:57.490Z,16.77
2023-11-18T20:08:24.202Z,16.05
2023-11-18T20:10:50.660Z,16.13
2023-11-18T20:13:17.168Z,15.82
2023-11-18T20:15:43.705Z,16.35
2023-11-18T20:18:12.832Z,15.00
2023-11-18T20:20:39.589Z,16.35
2023-11-18T20:23:06.309Z,15.73
2023-11-18T20:25:33.044Z,17.10
2023-11-18T20:27:59.548Z,15.57
2023-11-18T20:30:26.119Z,15.73
2023-11-18T20:32:53.028Z,15.27
2023-11-18T20:35:20.090Z,14.50
2023-11-18T20:37:48.711Z,15.15
2023-11-18T20:40:17.642Z,15.95
2023-11-18T20:42:44.292Z,15.00
2023-11-18T20:45:14.936Z,13.30
2023-11-18T20:47:41.796Z,15.02
2023-11-18T20:50:08.865Z,14.80
2023-11-18T20:52:35.362Z,12.15
2023-11-18T20:55:04.669Z,13.82
2023-11-18T20:57:31.159Z,13.52
2023-11-18T20:59:58.083Z,13.63
2023-11-18T21:02:24.660Z,12.43
2023-11-18T21:04:51.485Z,13.73
2023-11-18T21:07:18.222Z,13.07
2023-11-18T21:09:44.674Z,11.57
2023-11-18T21:12:18.172Z,12.88
2023-11-18T21:14:49.327Z,11.00
2023-11-18T21:17:16.124Z,11.98
2023-11-18T21:19:43.137Z,13.05
2023-11-18T21:22:09.831Z,11.07
2023-11-18T21:24:36.294Z,12.18
2023-11-18T21:27:02.791Z,12.77
2023-11-18T21:29:29.358Z,13.20
2023-11-18T21:31:55.861Z,11.45
2023-11-18T21:34:22.301Z,13.52
2023-11-18T21:36:48.803Z,13.20
2023-11-18T21:39:19.018Z,12.13
2023-11-18T21:41:45.545Z,12.88
2023-11-18T21:44:12.047Z,11.63
2023-11-18T21:46:38.600Z,10.75
2023-11-18T21:49:10.627Z,11.57
2023-11-18T21:51:37.860Z,12.10
2023-11-18T21:54:04.716Z,12.90
2023-11-18T21:56:34.605Z,11.88
2023-11-18T22:01:27.942Z,10.35
2023-11-18T22:03:54.477Z,11.63
2023-11-18T22:06:23.693Z,9.73
2023-11-18T22:08:50.360Z,10.38
2023-11-18T22:11:20.127Z,10.27
2023-11-18T22:16:16.427Z,9.80
2023-11-18T22:18:42.983Z,9.88
2023-11-18T22:21:09.490Z,10.88
2023-11-18T22:23:38.617Z,10.65
2023-11-18T22:26:06.094Z,9.88
2023-11-18T22:28:33.298Z,8.43
2023-11-18T22:31:00.276Z,9.65
2023-11-18T22:33:27.196Z,9.70
2023-11-18T22:35:55.016Z,10.40
2023-11-18T22:38:25.336Z,7.78
2023-11-18T22:40:52.167Z,8.35
2023-11-18T22:43:20.461Z,9.88
2023-11-18T22:45:49.856Z,10.10
2023-11-18T22:48:16.446Z,9.30
2023-11-18T22:50:43.013Z,8.98
2023-11-18T22:53:10.636Z,10.88
2023-11-18T22:55:39.470Z,10.02
2023-11-18T22:58:06.141Z,9.70
2023-11-18T23:00:51.506Z,10.10
2023-11-18T23:03:19.125Z,9.32
2023-11-18T23:05:45.959Z,9.63
2023-11-18T23:08:17.853Z,9.95
2023-11-18T23:10:45.429Z,9.57
2023-11-18T23:13:12.798Z,7.72
2023-11-18T23:15:41.009Z,6.82
2023-11-18T23:18:08.482Z,7.50
2023-11-18T23:20:37.942Z,7.30
2023-11-18T23:23:04.742Z,7.40
2023-11-18T23:25:31.288Z,5.32
2023-11-18T23:28:02.427Z,7.00
2023-11-18T23:30:30.669Z,6.32
2023-11-18T23:32:57.623Z,6.00
2023-11-18T23:35:24.225Z,6.40
2023-11-18T23:37:52.421Z,5.50
2023-11-18T23:40:20.582Z,5.07
2023-11-18T23:42:48.664Z,5.43
2023-11-18T23:45:15.691Z,4.70
2023-11-18T23:47:43.688Z,5.53
2023-11-18T23:50:14.423Z,4.90
2023-11-18T23:52:40.958Z,4.20
2023-11-18T23:55:13.565Z,4.13
2023-11-18T23:57:41.659Z,4.78
